KGFK

Grand Forks International Airport

Grand Forks, North Dakota, USA
METAR KGFK 141153Z 24004KT 10SM CLR M05/M08 A2996 RMK AO2 SLP160 4/002 T10501078 11006 21072 51010
Observed Flight Rules
Dec-14 @ 11:53 UTC (27 minutes ago) Visual Flight Rules
Wind Visibility Clouds
240° at 4 knots 10 miles
  • Clear skies
Temperatures Readings Precipitation
Current -5°C / 23°F
Dewpoint -8°C / 18°F
Humidity 80%
Altimeter 29.96" Hg
Pressure 1016 hPa
Elevation 258
Snow Depth 2
METAR KGFK 141153Z 24004KT 10SM CLR M05/M08 A2996 RMK AO2 SLP160 4/002 T10501078 11006 21072 51010
Observed Flight Rules
Dec-14 @ 11:53 UTC
(27 minutes ago)
VFR
Wind Visibility
240° at 4 knots 10 miles
Clouds
  • Clear skies
Temperature Dewpoint
-5°C / 23°F -8°C / 18°F
Humidity Altimeter Pressure
80% 29.96" Hg 1016 hPa
Snow Depth
2